sensor_id;sensor_type;location;lat;lon;timestamp;P1;durP1;ratioP1;P2;durP2;ratioP2
44197;SDS011;30157;55.512;37.764;2023-06-26T00:02:25;13.13;;;8.27;;
44197;SDS011;30157;55.512;37.764;2023-06-26T00:04:50;12.48;;;8.57;;
44197;SDS011;30157;55.512;37.764;2023-06-26T00:07:19;13.73;;;9.20;;
44197;SDS011;30157;55.512;37.764;2023-06-26T00:09:46;13.70;;;9.23;;
44197;SDS011;30157;55.512;37.764;2023-06-26T00:12:12;13.30;;;8.77;;
44197;SDS011;30157;55.512;37.764;2023-06-26T00:14:38;15.40;;;9.38;;
44197;SDS011;30157;55.512;37.764;2023-06-26T00:17:04;13.35;;;9.45;;
44197;SDS011;30157;55.512;37.764;2023-06-26T00:19:29;13.85;;;9.23;;
44197;SDS011;30157;55.512;37.764;2023-06-26T00:21:55;14.23;;;9.68;;
44197;SDS011;30157;55.512;37.764;2023-06-26T00:24:21;13.73;;;9.45;;
44197;SDS011;30157;55.512;37.764;2023-06-26T00:26:47;13.75;;;10.00;;
44197;SDS011;30157;55.512;37.764;2023-06-26T00:29:13;15.27;;;10.13;;
44197;SDS011;30157;55.512;37.764;2023-06-26T00:31:39;16.10;;;10.20;;
44197;SDS011;30157;55.512;37.764;2023-06-26T00:34:06;16.75;;;10.25;;
44197;SDS011;30157;55.512;37.764;2023-06-26T00:36:32;14.45;;;9.57;;
44197;SDS011;30157;55.512;37.764;2023-06-26T00:38:58;19.15;;;9.95;;
44197;SDS011;30157;55.512;37.764;2023-06-26T00:41:27;14.15;;;9.40;;
44197;SDS011;30157;55.512;37.764;2023-06-26T00:43:53;14.55;;;9.85;;
44197;SDS011;30157;55.512;37.764;2023-06-26T00:46:19;12.88;;;8.95;;
44197;SDS011;30157;55.512;37.764;2023-06-26T00:48:46;13.90;;;9.23;;
44197;SDS011;30157;55.512;37.764;2023-06-26T00:51:13;14.43;;;8.75;;
44197;SDS011;30157;55.512;37.764;2023-06-26T00:53:39;13.25;;;8.88;;
44197;SDS011;30157;55.512;37.764;2023-06-26T00:56:05;13.38;;;9.05;;
44197;SDS011;30157;55.512;37.764;2023-06-26T00:58:32;14.75;;;9.13;;
44197;SDS011;30157;55.512;37.764;2023-06-26T01:00:58;13.27;;;9.60;;
44197;SDS011;30157;55.512;37.764;2023-06-26T01:03:24;11.88;;;8.65;;
44197;SDS011;30157;55.512;37.764;2023-06-26T01:05:53;13.95;;;9.30;;
44197;SDS011;30157;55.512;37.764;2023-06-26T01:08:21;11.25;;;8.30;;
44197;SDS011;30157;55.512;37.764;2023-06-26T01:10:48;15.15;;;10.25;;
44197;SDS011;30157;55.512;37.764;2023-06-26T01:13:14;15.68;;;9.68;;
44197;SDS011;30157;55.512;37.764;2023-06-26T01:15:40;17.33;;;9.68;;
44197;SDS011;30157;55.512;37.764;2023-06-26T01:18:07;15.90;;;10.40;;
44197;SDS011;30157;55.512;37.764;2023-06-26T01:20:36;14.18;;;10.05;;
44197;SDS011;30157;55.512;37.764;2023-06-26T01:25:54;17.10;;;10.43;;
44197;SDS011;30157;55.512;37.764;2023-06-26T01:28:34;14.27;;;9.80;;
44197;SDS011;30157;55.512;37.764;2023-06-26T01:31:02;16.40;;;9.32;;
44197;SDS011;30157;55.512;37.764;2023-06-26T01:33:30;15.30;;;9.05;;
44197;SDS011;30157;55.512;37.764;2023-06-26T01:35:56;15.02;;;9.63;;
44197;SDS011;30157;55.512;37.764;2023-06-26T01:38:22;12.85;;;9.18;;
44197;SDS011;30157;55.512;37.764;2023-06-26T01:40:48;11.25;;;8.63;;
44197;SDS011;30157;55.512;37.764;2023-06-26T01:43:20;12.93;;;8.30;;
44197;SDS011;30157;55.512;37.764;2023-06-26T01:45:54;13.13;;;8.98;;
44197;SDS011;30157;55.512;37.764;2023-06-26T01:48:28;13.88;;;9.65;;
44197;SDS011;30157;55.512;37.764;2023-06-26T01:50:58;13.85;;;9.02;;
44197;SDS011;30157;55.512;37.764;2023-06-26T01:53:27;15.18;;;9.80;;
44197;SDS011;30157;55.512;37.764;2023-06-26T01:56:08;16.17;;;9.80;;
44197;SDS011;30157;55.512;37.764;2023-06-26T01:58:43;14.48;;;9.05;;
44197;SDS011;30157;55.512;37.764;2023-06-26T02:01:11;14.43;;;9.45;;
44197;SDS011;30157;55.512;37.764;2023-06-26T02:03:37;17.25;;;9.55;;
44197;SDS011;30157;55.512;37.764;2023-06-26T02:06:03;15.02;;;9.43;;
44197;SDS011;30157;55.512;37.764;2023-06-26T02:08:29;14.75;;;9.98;;
44197;SDS011;30157;55.512;37.764;2023-06-26T02:10:56;21.58;;;11.27;;
44197;SDS011;30157;55.512;37.764;2023-06-26T02:13:23;21.73;;;11.05;;
44197;SDS011;30157;55.512;37.764;2023-06-26T02:15:49;18.38;;;10.65;;
44197;SDS011;30157;55.512;37.764;2023-06-26T02:18:15;19.42;;;10.45;;
44197;SDS011;30157;55.512;37.764;2023-06-26T02:20:41;17.15;;;11.35;;
44197;SDS011;30157;55.512;37.764;2023-06-26T02:23:09;17.45;;;10.20;;
44197;SDS011;30157;55.512;37.764;2023-06-26T02:25:35;15.73;;;10.18;;
44197;SDS011;30157;55.512;37.764;2023-06-26T02:28:01;17.50;;;9.57;;
44197;SDS011;30157;55.512;37.764;2023-06-26T02:30:26;15.80;;;9.55;;
44197;SDS011;30157;55.512;37.764;2023-06-26T02:32:52;17.33;;;10.07;;
44197;SDS011;30157;55.512;37.764;2023-06-26T02:35:18;17.92;;;11.52;;
44197;SDS011;30157;55.512;37.764;2023-06-26T02:37:44;14.85;;;10.02;;
44197;SDS011;30157;55.512;37.764;2023-06-26T02:40:10;19.80;;;10.85;;
44197;SDS011;30157;55.512;37.764;2023-06-26T02:42:37;20.60;;;10.55;;
44197;SDS011;30157;55.512;37.764;2023-06-26T02:45:04;18.48;;;10.57;;
44197;SDS011;30157;55.512;37.764;2023-06-26T02:47:32;20.55;;;11.30;;
44197;SDS011;30157;55.512;37.764;2023-06-26T02:49:58;17.73;;;10.13;;
44197;SDS011;30157;55.512;37.764;2023-06-26T02:52:24;15.65;;;10.95;;
44197;SDS011;30157;55.512;37.764;2023-06-26T02:54:50;17.55;;;10.90;;
44197;SDS011;30157;55.512;37.764;2023-06-26T02:57:15;18.02;;;11.02;;
44197;SDS011;30157;55.512;37.764;2023-06-26T02:59:42;19.20;;;11.55;;
44197;SDS011;30157;55.512;37.764;2023-06-26T03:02:09;18.20;;;10.85;;
44197;SDS011;30157;55.512;37.764;2023-06-26T03:04:42;18.67;;;11.05;;
44197;SDS011;30157;55.512;37.764;2023-06-26T03:07:11;19.50;;;10.75;;
44197;SDS011;30157;55.512;37.764;2023-06-26T03:09:39;20.15;;;10.65;;
44197;SDS011;30157;55.512;37.764;2023-06-26T03:12:06;16.55;;;10.65;;
44197;SDS011;30157;55.512;37.764;2023-06-26T03:14:33;17.95;;;10.85;;
44197;SDS011;30157;55.512;37.764;2023-06-26T03:16:59;19.63;;;10.13;;
44197;SDS011;30157;55.512;37.764;2023-06-26T03:19:30;14.63;;;9.55;;
44197;SDS011;30157;55.512;37.764;2023-06-26T03:22:14;13.50;;;9.68;;
44197;SDS011;30157;55.512;37.764;2023-06-26T03:24:40;16.48;;;9.93;;
44197;SDS011;30157;55.512;37.764;2023-06-26T03:27:06;17.02;;;10.27;;
44197;SDS011;30157;55.512;37.764;2023-06-26T03:29:32;17.83;;;10.90;;
44197;SDS011;30157;55.512;37.764;2023-06-26T03:31:58;18.83;;;10.80;;
44197;SDS011;30157;55.512;37.764;2023-06-26T03:34:25;20.92;;;11.38;;
44197;SDS011;30157;55.512;37.764;2023-06-26T03:36:52;17.92;;;10.63;;
44197;SDS011;30157;55.512;37.764;2023-06-26T03:39:18;17.10;;;10.20;;
44197;SDS011;30157;55.512;37.764;2023-06-26T03:41:44;18.20;;;9.65;;
44197;SDS011;30157;55.512;37.764;2023-06-26T03:44:09;17.23;;;10.45;;
44197;SDS011;30157;55.512;37.764;2023-06-26T03:46:44;17.10;;;10.20;;
44197;SDS011;30157;55.512;37.764;2023-06-26T03:49:10;20.17;;;10.88;;
44197;SDS011;30157;55.512;37.764;2023-06-26T03:51:36;19.50;;;10.05;;
44197;SDS011;30157;55.512;37.764;2023-06-26T03:54:02;22.52;;;10.90;;
44197;SDS011;30157;55.512;37.764;2023-06-26T03:56:28;15.02;;;10.07;;
44197;SDS011;30157;55.512;37.764;2023-06-26T03:58:54;17.05;;;9.90;;
44197;SDS011;30157;55.512;37.764;2023-06-26T04:01:19;17.13;;;10.07;;
44197;SDS011;30157;55.512;37.764;2023-06-26T04:03:48;16.67;;;9.40;;
44197;SDS011;30157;55.512;37.764;2023-06-26T04:06:14;14.18;;;9.25;;
44197;SDS011;30157;55.512;37.764;2023-06-26T04:08:40;13.55;;;8.93;;
44197;SDS011;30157;55.512;37.764;2023-06-26T04:11:05;14.30;;;9.30;;
44197;SDS011;30157;55.512;37.764;2023-06-26T04:13:32;15.75;;;9.55;;
44197;SDS011;30157;55.512;37.764;2023-06-26T04:15:57;12.10;;;8.35;;
44197;SDS011;30157;55.512;37.764;2023-06-26T04:18:23;15.05;;;9.65;;
44197;SDS011;30157;55.512;37.764;2023-06-26T04:23:35;11.35;;;8.73;;
44197;SDS011;30157;55.512;37.764;2023-06-26T04:26:00;14.68;;;9.40;;
44197;SDS011;30157;55.512;37.764;2023-06-26T04:28:28;21.00;;;9.02;;
44197;SDS011;30157;55.512;37.764;2023-06-26T04:30:54;15.75;;;8.98;;
44197;SDS011;30157;55.512;37.764;2023-06-26T04:33:20;15.40;;;8.80;;
44197;SDS011;30157;55.512;37.764;2023-06-26T04:35:45;14.65;;;8.23;;
44197;SDS011;30157;55.512;37.764;2023-06-26T04:38:14;13.90;;;8.80;;
44197;SDS011;30157;55.512;37.764;2023-06-26T04:40:41;13.45;;;8.48;;
44197;SDS011;30157;55.512;37.764;2023-06-26T04:43:06;15.75;;;8.10;;
44197;SDS011;30157;55.512;37.764;2023-06-26T04:45:32;13.30;;;7.30;;
44197;SDS011;30157;55.512;37.764;2023-06-26T04:47:58;9.75;;;6.95;;
44197;SDS011;30157;55.512;37.764;2023-06-26T04:50:26;12.23;;;6.78;;
44197;SDS011;30157;55.512;37.764;2023-06-26T04:52:54;10.18;;;7.03;;
44197;SDS011;30157;55.512;37.764;2023-06-26T04:55:20;9.88;;;7.20;;
44197;SDS011;30157;55.512;37.764;2023-06-26T04:57:49;11.15;;;7.38;;
44197;SDS011;30157;55.512;37.764;2023-06-26T05:00:15;11.52;;;7.47;;
44197;SDS011;30157;55.512;37.764;2023-06-26T05:02:41;7.72;;;6.25;;
44197;SDS011;30157;55.512;37.764;2023-06-26T05:05:07;9.38;;;6.45;;
44197;SDS011;30157;55.512;37.764;2023-06-26T05:07:33;11.18;;;7.78;;
44197;SDS011;30157;55.512;37.764;2023-06-26T05:09:59;9.00;;;6.93;;
44197;SDS011;30157;55.512;37.764;2023-06-26T05:12:24;9.32;;;7.15;;
44197;SDS011;30157;55.512;37.764;2023-06-26T05:14:50;8.70;;;6.78;;
44197;SDS011;30157;55.512;37.764;2023-06-26T05:17:16;10.23;;;6.97;;
44197;SDS011;30157;55.512;37.764;2023-06-26T05:19:42;9.30;;;6.60;;
44197;SDS011;30157;55.512;37.764;2023-06-26T05:22:08;12.23;;;6.85;;
44197;SDS011;30157;55.512;37.764;2023-06-26T05:24:38;10.00;;;6.68;;
44197;SDS011;30157;55.512;37.764;2023-06-26T05:27:04;7.97;;;6.45;;
44197;SDS011;30157;55.512;37.764;2023-06-26T05:29:31;11.98;;;7.03;;
44197;SDS011;30157;55.512;37.764;2023-06-26T05:31:58;11.43;;;6.32;;
44197;SDS011;30157;55.512;37.764;2023-06-26T05:34:24;8.23;;;5.95;;
44197;SDS011;30157;55.512;37.764;2023-06-26T05:36:55;10.13;;;6.45;;
44197;SDS011;30157;55.512;37.764;2023-06-26T05:39:24;10.32;;;6.20;;
44197;SDS011;30157;55.512;37.764;2023-06-26T05:41:50;9.80;;;5.68;;
44197;SDS011;30157;55.512;37.764;2023-06-26T05:44:16;9.60;;;7.50;;
44197;SDS011;30157;55.512;37.764;2023-06-26T05:46:43;11.02;;;6.57;;
44197;SDS011;30157;55.512;37.764;2023-06-26T05:49:09;7.82;;;6.65;;
44197;SDS011;30157;55.512;37.764;2023-06-26T05:51:35;8.98;;;7.25;;
44197;SDS011;30157;55.512;37.764;2023-06-26T05:54:01;10.13;;;7.00;;
44197;SDS011;30157;55.512;37.764;2023-06-26T05:56:28;10.32;;;6.72;;
44197;SDS011;30157;55.512;37.764;2023-06-26T05:58:54;9.15;;;5.72;;
44197;SDS011;30157;55.512;37.764;2023-06-26T06:01:20;8.52;;;6.32;;
44197;SDS011;30157;55.512;37.764;2023-06-26T06:03:46;8.35;;;6.57;;
44197;SDS011;30157;55.512;37.764;2023-06-26T06:06:12;7.30;;;6.47;;
44197;SDS011;30157;55.512;37.764;2023-06-26T06:08:38;6.95;;;6.05;;
44197;SDS011;30157;55.512;37.764;2023-06-26T06:11:04;7.15;;;6.10;;
44197;SDS011;30157;55.512;37.764;2023-06-26T06:13:30;14.95;;;6.18;;
44197;SDS011;30157;55.512;37.764;2023-06-26T06:15:56;6.18;;;5.00;;
44197;SDS011;30157;55.512;37.764;2023-06-26T06:18:23;7.05;;;5.40;;
44197;SDS011;30157;55.512;37.764;2023-06-26T06:20:48;6.00;;;5.40;;
44197;SDS011;30157;55.512;37.764;2023-06-26T06:23:14;6.85;;;5.22;;
44197;SDS011;30157;55.512;37.764;2023-06-26T06:25:40;22.15;;;7.22;;
44197;SDS011;30157;55.512;37.764;2023-06-26T06:28:05;7.63;;;5.50;;
44197;SDS011;30157;55.512;37.764;2023-06-26T06:30:31;8.90;;;6.32;;
44197;SDS011;30157;55.512;37.764;2023-06-26T06:32:57;5.68;;;4.75;;
44197;SDS011;30157;55.512;37.764;2023-06-26T06:35:23;21.98;;;7.20;;
44197;SDS011;30157;55.512;37.764;2023-06-26T06:37:49;7.10;;;5.47;;
44197;SDS011;30157;55.512;37.764;2023-06-26T06:40:15;5.65;;;4.85;;
44197;SDS011;30157;55.512;37.764;2023-06-26T06:42:41;6.32;;;5.72;;
44197;SDS011;30157;55.512;37.764;2023-06-26T06:45:07;6.30;;;4.43;;
44197;SDS011;30157;55.512;37.764;2023-06-26T06:47:33;8.05;;;5.93;;
44197;SDS011;30157;55.512;37.764;2023-06-26T06:50:00;5.78;;;5.07;;
44197;SDS011;30157;55.512;37.764;2023-06-26T06:52:37;5.07;;;4.57;;
44197;SDS011;30157;55.512;37.764;2023-06-26T06:55:05;5.30;;;4.80;;
44197;SDS011;30157;55.512;37.764;2023-06-26T06:57:38;5.38;;;4.88;;
44197;SDS011;30157;55.512;37.764;2023-06-26T07:00:05;4.90;;;4.40;;
44197;SDS011;30157;55.512;37.764;2023-06-26T07:02:37;5.53;;;4.60;;
44197;SDS011;30157;55.512;37.764;2023-06-26T07:05:04;5.30;;;4.80;;
44197;SDS011;30157;55.512;37.764;2023-06-26T07:07:32;5.10;;;4.60;;
44197;SDS011;30157;55.512;37.764;2023-06-26T07:09:59;5.45;;;4.20;;
44197;SDS011;30157;55.512;37.764;2023-06-26T07:12:31;4.40;;;4.00;;
44197;SDS011;30157;55.512;37.764;2023-06-26T07:14:57;6.45;;;4.13;;
44197;SDS011;30157;55.512;37.764;2023-06-26T07:17:23;5.65;;;4.88;;
44197;SDS011;30157;55.512;37.764;2023-06-26T07:19:50;6.10;;;5.40;;
44197;SDS011;30157;55.512;37.764;2023-06-26T07:22:16;5.30;;;4.30;;
44197;SDS011;30157;55.512;37.764;2023-06-26T07:24:41;5.95;;;5.05;;
44197;SDS011;30157;55.512;37.764;2023-06-26T07:27:08;6.72;;;4.05;;
44197;SDS011;30157;55.512;37.764;2023-06-26T07:29:33;5.00;;;3.72;;
44197;SDS011;30157;55.512;37.764;2023-06-26T07:31:59;4.80;;;4.10;;
44197;SDS011;30157;55.512;37.764;2023-06-26T07:34:25;4.57;;;3.80;;
44197;SDS011;30157;55.512;37.764;2023-06-26T07:36:50;5.28;;;3.80;;
44197;SDS011;30157;55.512;37.764;2023-06-26T07:39:16;4.22;;;3.53;;
44197;SDS011;30157;55.512;37.764;2023-06-26T07:41:42;4.15;;;3.70;;
44197;SDS011;30157;55.512;37.764;2023-06-26T07:44:08;4.20;;;3.47;;
44197;SDS011;30157;55.512;37.764;2023-06-26T07:46:34;9.70;;;3.75;;
44197;SDS011;30157;55.512;37.764;2023-06-26T07:48:59;6.40;;;4.28;;
44197;SDS011;30157;55.512;37.764;2023-06-26T07:51:25;4.20;;;3.58;;
44197;SDS011;30157;55.512;37.764;2023-06-26T07:53:51;4.35;;;3.88;;
44197;SDS011;30157;55.512;37.764;2023-06-26T07:56:17;15.23;;;5.10;;
44197;SDS011;30157;55.512;37.764;2023-06-26T07:58:43;21.85;;;6.03;;
44197;SDS011;30157;55.512;37.764;2023-06-26T08:01:08;5.57;;;4.10;;
44197;SDS011;30157;55.512;37.764;2023-06-26T08:03:37;5.07;;;3.42;;
44197;SDS011;30157;55.512;37.764;2023-06-26T08:06:03;4.18;;;3.72;;
44197;SDS011;30157;55.512;37.764;2023-06-26T08:08:29;4.25;;;3.83;;
44197;SDS011;30157;55.512;37.764;2023-06-26T08:10:55;4.28;;;3.80;;
44197;SDS011;30157;55.512;37.764;2023-06-26T08:13:20;4.18;;;3.78;;
44197;SDS011;30157;55.512;37.764;2023-06-26T08:15:46;4.25;;;3.70;;
44197;SDS011;30157;55.512;37.764;2023-06-26T08:18:12;4.30;;;3.90;;
44197;SDS011;30157;55.512;37.764;2023-06-26T08:20:38;5.55;;;3.97;;
44197;SDS011;30157;55.512;37.764;2023-06-26T08:23:04;6.50;;;3.90;;
44197;SDS011;30157;55.512;37.764;2023-06-26T08:25:30;6.57;;;4.57;;
44197;SDS011;30157;55.512;37.764;2023-06-26T08:27:55;5.40;;;4.43;;
44197;SDS011;30157;55.512;37.764;2023-06-26T08:30:21;4.82;;;3.90;;
44197;SDS011;30157;55.512;37.764;2023-06-26T08:32:47;5.72;;;3.80;;
44197;SDS011;30157;55.512;37.764;2023-06-26T08:35:13;4.40;;;3.80;;
44197;SDS011;30157;55.512;37.764;2023-06-26T08:37:39;6.97;;;4.00;;
44197;SDS011;30157;55.512;37.764;2023-06-26T08:40:05;5.20;;;4.00;;
44197;SDS011;30157;55.512;37.764;2023-06-26T08:42:32;5.95;;;3.95;;
44197;SDS011;30157;55.512;37.764;2023-06-26T08:44:58;5.28;;;3.72;;
44197;SDS011;30157;55.512;37.764;2023-06-26T08:47:23;3.83;;;3.40;;
44197;SDS011;30157;55.512;37.764;2023-06-26T08:49:51;3.97;;;3.42;;
44197;SDS011;30157;55.512;37.764;2023-06-26T08:52:24;6.40;;;3.83;;
44197;SDS011;30157;55.512;37.764;2023-06-26T08:54:59;5.80;;;4.43;;
44197;SDS011;30157;55.512;37.764;2023-06-26T08:57:29;4.20;;;3.80;;
44197;SDS011;30157;55.512;37.764;2023-06-26T08:59:57;5.10;;;4.35;;
44197;SDS011;30157;55.512;37.764;2023-06-26T09:02:23;6.07;;;4.35;;
44197;SDS011;30157;55.512;37.764;2023-06-26T09:04:49;5.68;;;4.25;;
44197;SDS011;30157;55.512;37.764;2023-06-26T09:07:16;7.93;;;4.07;;
44197;SDS011;30157;55.512;37.764;2023-06-26T09:09:42;4.35;;;3.72;;
44197;SDS011;30157;55.512;37.764;2023-06-26T09:12:08;6.30;;;4.10;;
44197;SDS011;30157;55.512;37.764;2023-06-26T09:14:35;4.78;;;4.22;;
44197;SDS011;30157;55.512;37.764;2023-06-26T09:17:02;4.60;;;3.90;;
44197;SDS011;30157;55.512;37.764;2023-06-26T09:19:28;4.63;;;4.03;;
44197;SDS011;30157;55.512;37.764;2023-06-26T09:21:53;5.22;;;4.72;;
44197;SDS011;30157;55.512;37.764;2023-06-26T09:24:19;5.35;;;4.20;;
44197;SDS011;30157;55.512;37.764;2023-06-26T09:26:46;6.20;;;4.50;;
44197;SDS011;30157;55.512;37.764;2023-06-26T09:29:13;4.90;;;4.10;;
44197;SDS011;30157;55.512;37.764;2023-06-26T09:31:40;6.43;;;4.20;;
44197;SDS011;30157;55.512;37.764;2023-06-26T09:34:06;5.97;;;4.53;;
44197;SDS011;30157;55.512;37.764;2023-06-26T09:36:32;5.30;;;4.60;;
44197;SDS011;30157;55.512;37.764;2023-06-26T09:39:00;4.95;;;4.13;;
44197;SDS011;30157;55.512;37.764;2023-06-26T09:41:26;5.22;;;4.18;;
44197;SDS011;30157;55.512;37.764;2023-06-26T09:43:52;4.72;;;4.22;;
44197;SDS011;30157;55.512;37.764;2023-06-26T09:46:27;7.00;;;4.05;;
44197;SDS011;30157;55.512;37.764;2023-06-26T09:49:04;5.00;;;4.28;;
44197;SDS011;30157;55.512;37.764;2023-06-26T09:51:36;5.72;;;4.18;;
44197;SDS011;30157;55.512;37.764;2023-06-26T09:54:03;4.50;;;4.10;;
44197;SDS011;30157;55.512;37.764;2023-06-26T09:56:30;4.60;;;3.90;;
44197;SDS011;30157;55.512;37.764;2023-06-26T09:58:57;6.28;;;4.30;;
44197;SDS011;30157;55.512;37.764;2023-06-26T10:01:29;5.38;;;4.30;;
44197;SDS011;30157;55.512;37.764;2023-06-26T10:03:56;5.78;;;3.90;;
44197;SDS011;30157;55.512;37.764;2023-06-26T10:06:32;6.70;;;4.38;;
44197;SDS011;30157;55.512;37.764;2023-06-26T10:09:04;4.75;;;4.10;;
44197;SDS011;30157;55.512;37.764;2023-06-26T10:11:37;4.43;;;3.63;;
44197;SDS011;30157;55.512;37.764;2023-06-26T10:14:07;5.53;;;4.20;;
44197;SDS011;30157;55.512;37.764;2023-06-26T10:16:36;5.65;;;4.10;;
44197;SDS011;30157;55.512;37.764;2023-06-26T10:19:06;5.47;;;4.25;;
44197;SDS011;30157;55.512;37.764;2023-06-26T10:21:35;6.03;;;4.55;;
44197;SDS011;30157;55.512;37.764;2023-06-26T10:24:04;6.00;;;4.00;;
44197;SDS011;30157;55.512;37.764;2023-06-26T10:26:31;4.57;;;4.10;;
44197;SDS011;30157;55.512;37.764;2023-06-26T10:29:03;4.65;;;4.18;;
44197;SDS011;30157;55.512;37.764;2023-06-26T10:31:31;5.03;;;4.53;;
44197;SDS011;30157;55.512;37.764;2023-06-26T10:33:58;5.18;;;4.30;;
44197;SDS011;30157;55.512;37.764;2023-06-26T10:36:28;5.20;;;4.60;;
44197;SDS011;30157;55.512;37.764;2023-06-26T10:38:56;4.30;;;3.80;;
44197;SDS011;30157;55.512;37.764;2023-06-26T10:41:24;8.55;;;4.65;;
44197;SDS011;30157;55.512;37.764;2023-06-26T10:46:25;5.68;;;4.18;;
44197;SDS011;30157;55.512;37.764;2023-06-26T10:48:57;10.00;;;8.02;;
44197;SDS011;30157;55.512;37.764;2023-06-26T10:51:25;15.88;;;11.95;;
44197;SDS011;30157;55.512;37.764;2023-06-26T10:53:54;10.55;;;8.10;;
44197;SDS011;30157;55.512;37.764;2023-06-26T10:56:21;5.97;;;4.75;;
44197;SDS011;30157;55.512;37.764;2023-06-26T10:59:14;5.97;;;5.22;;
44197;SDS011;30157;55.512;37.764;2023-06-26T11:02:04;5.35;;;4.32;;
44197;SDS011;30157;55.512;37.764;2023-06-26T11:04:46;6.47;;;4.25;;
44197;SDS011;30157;55.512;37.764;2023-06-26T11:09:58;6.80;;;5.07;;
44197;SDS011;30157;55.512;37.764;2023-06-26T11:15:07;6.32;;;4.57;;
44197;SDS011;30157;55.512;37.764;2023-06-26T11:17:38;6.15;;;4.95;;
44197;SDS011;30157;55.512;37.764;2023-06-26T11:20:11;6.18;;;4.40;;
44197;SDS011;30157;55.512;37.764;2023-06-26T11:22:38;5.15;;;4.05;;
44197;SDS011;30157;55.512;37.764;2023-06-26T11:25:09;5.18;;;4.22;;
44197;SDS011;30157;55.512;37.764;2023-06-26T11:27:42;5.78;;;5.13;;
44197;SDS011;30157;55.512;37.764;2023-06-26T11:30:09;6.90;;;4.38;;
44197;SDS011;30157;55.512;37.764;2023-06-26T11:32:37;31.05;;;20.30;;
44197;SDS011;30157;55.512;37.764;2023-06-26T11:35:04;11.30;;;8.27;;
44197;SDS011;30157;55.512;37.764;2023-06-26T11:37:31;6.07;;;4.60;;
44197;SDS011;30157;55.512;37.764;2023-06-26T11:39:57;11.68;;;8.40;;
44197;SDS011;30157;55.512;37.764;2023-06-26T11:42:23;7.40;;;6.15;;
44197;SDS011;30157;55.512;37.764;2023-06-26T11:44:49;21.58;;;15.20;;
44197;SDS011;30157;55.512;37.764;2023-06-26T11:47:16;6.05;;;5.18;;
44197;SDS011;30157;55.512;37.764;2023-06-26T11:49:44;5.43;;;4.38;;
44197;SDS011;30157;55.512;37.764;2023-06-26T11:52:10;5.07;;;4.18;;
44197;SDS011;30157;55.512;37.764;2023-06-26T11:54:36;6.05;;;4.53;;
44197;SDS011;30157;55.512;37.764;2023-06-26T11:57:02;5.65;;;4.75;;
44197;SDS011;30157;55.512;37.764;2023-06-26T11:59:35;6.97;;;5.13;;
44197;SDS011;30157;55.512;37.764;2023-06-26T12:02:08;6.00;;;5.15;;
44197;SDS011;30157;55.512;37.764;2023-06-26T12:04:36;5.57;;;4.43;;
44197;SDS011;30157;55.512;37.764;2023-06-26T12:07:05;6.88;;;4.45;;
44197;SDS011;30157;55.512;37.764;2023-06-26T12:09:37;4.90;;;4.07;;
44197;SDS011;30157;55.512;37.764;2023-06-26T12:12:05;4.90;;;3.88;;
44197;SDS011;30157;55.512;37.764;2023-06-26T12:14:32;4.88;;;4.28;;
44197;SDS011;30157;55.512;37.764;2023-06-26T12:17:11;4.95;;;4.13;;
44197;SDS011;30157;55.512;37.764;2023-06-26T12:19:45;7.47;;;4.55;;
44197;SDS011;30157;55.512;37.764;2023-06-26T12:22:16;6.05;;;4.35;;
44197;SDS011;30157;55.512;37.764;2023-06-26T12:24:42;5.80;;;4.28;;
44197;SDS011;30157;55.512;37.764;2023-06-26T12:27:13;5.03;;;4.20;;
44197;SDS011;30157;55.512;37.764;2023-06-26T12:29:41;4.55;;;3.97;;
44197;SDS011;30157;55.512;37.764;2023-06-26T12:32:12;4.88;;;3.78;;
44197;SDS011;30157;55.512;37.764;2023-06-26T12:34:39;7.25;;;4.90;;
44197;SDS011;30157;55.512;37.764;2023-06-26T12:37:07;5.78;;;3.65;;
44197;SDS011;30157;55.512;37.764;2023-06-26T12:39:46;4.93;;;3.83;;
44197;SDS011;30157;55.512;37.764;2023-06-26T12:42:23;3.67;;;3.22;;
44197;SDS011;30157;55.512;37.764;2023-06-26T12:44:50;5.07;;;4.00;;
44197;SDS011;30157;55.512;37.764;2023-06-26T12:47:17;5.97;;;4.20;;
44197;SDS011;30157;55.512;37.764;2023-06-26T12:49:44;4.90;;;3.67;;
44197;SDS011;30157;55.512;37.764;2023-06-26T12:52:12;5.25;;;4.07;;
44197;SDS011;30157;55.512;37.764;2023-06-26T12:54:39;5.38;;;3.97;;
44197;SDS011;30157;55.512;37.764;2023-06-26T12:57:06;6.15;;;4.28;;
44197;SDS011;30157;55.512;37.764;2023-06-26T12:59:32;5.90;;;4.10;;
44197;SDS011;30157;55.512;37.764;2023-06-26T13:01:59;5.05;;;3.92;;
44197;SDS011;30157;55.512;37.764;2023-06-26T13:04:26;6.40;;;4.82;;
44197;SDS011;30157;55.512;37.764;2023-06-26T13:06:52;5.22;;;4.20;;
44197;SDS011;30157;55.512;37.764;2023-06-26T13:09:20;6.05;;;4.25;;
44197;SDS011;30157;55.512;37.764;2023-06-26T13:11:46;5.15;;;4.13;;
44197;SDS011;30157;55.512;37.764;2023-06-26T13:14:12;4.40;;;4.00;;
44197;SDS011;30157;55.512;37.764;2023-06-26T13:16:38;5.32;;;4.50;;
44197;SDS011;30157;55.512;37.764;2023-06-26T13:19:05;5.10;;;3.95;;
44197;SDS011;30157;55.512;37.764;2023-06-26T13:21:30;5.35;;;3.92;;
44197;SDS011;30157;55.512;37.764;2023-06-26T13:23:56;5.53;;;4.18;;
44197;SDS011;30157;55.512;37.764;2023-06-26T13:26:23;4.90;;;4.40;;
44197;SDS011;30157;55.512;37.764;2023-06-26T13:28:50;9.35;;;4.28;;
44197;SDS011;30157;55.512;37.764;2023-06-26T13:31:16;5.15;;;4.13;;
44197;SDS011;30157;55.512;37.764;2023-06-26T13:33:42;5.43;;;4.18;;
44197;SDS011;30157;55.512;37.764;2023-06-26T13:36:09;5.43;;;4.20;;
44197;SDS011;30157;55.512;37.764;2023-06-26T13:38:35;6.72;;;4.65;;
44197;SDS011;30157;55.512;37.764;2023-06-26T13:41:01;5.65;;;4.40;;
44197;SDS011;30157;55.512;37.764;2023-06-26T13:43:27;4.65;;;3.60;;
44197;SDS011;30157;55.512;37.764;2023-06-26T13:45:53;5.18;;;4.25;;
44197;SDS011;30157;55.512;37.764;2023-06-26T13:48:20;6.20;;;4.28;;
44197;SDS011;30157;55.512;37.764;2023-06-26T13:50:46;6.35;;;4.40;;
44197;SDS011;30157;55.512;37.764;2023-06-26T13:53:13;5.68;;;4.30;;
44197;SDS011;30157;55.512;37.764;2023-06-26T13:55:39;5.32;;;4.10;;
44197;SDS011;30157;55.512;37.764;2023-06-26T13:58:06;5.57;;;4.65;;
44197;SDS011;30157;55.512;37.764;2023-06-26T14:00:33;6.40;;;4.28;;
44197;SDS011;30157;55.512;37.764;2023-06-26T14:03:00;20.58;;;14.75;;
44197;SDS011;30157;55.512;37.764;2023-06-26T14:05:28;12.48;;;8.40;;
44197;SDS011;30157;55.512;37.764;2023-06-26T14:07:54;8.07;;;6.78;;
44197;SDS011;30157;55.512;37.764;2023-06-26T14:10:21;7.25;;;5.80;;
44197;SDS011;30157;55.512;37.764;2023-06-26T14:12:47;7.85;;;6.30;;
44197;SDS011;30157;55.512;37.764;2023-06-26T14:15:13;6.15;;;5.28;;
44197;SDS011;30157;55.512;37.764;2023-06-26T14:17:39;6.90;;;4.80;;
44197;SDS011;30157;55.512;37.764;2023-06-26T14:20:08;7.40;;;5.32;;
44197;SDS011;30157;55.512;37.764;2023-06-26T14:22:41;6.40;;;4.63;;
44197;SDS011;30157;55.512;37.764;2023-06-26T14:25:11;6.25;;;4.50;;
44197;SDS011;30157;55.512;37.764;2023-06-26T14:27:37;8.32;;;6.57;;
44197;SDS011;30157;55.512;37.764;2023-06-26T14:30:03;8.02;;;5.25;;
44197;SDS011;30157;55.512;37.764;2023-06-26T14:32:33;8.82;;;5.45;;
44197;SDS011;30157;55.512;37.764;2023-06-26T14:35:01;5.65;;;4.40;;
44197;SDS011;30157;55.512;37.764;2023-06-26T14:37:32;5.63;;;4.18;;
44197;SDS011;30157;55.512;37.764;2023-06-26T14:39:57;5.45;;;4.10;;
44197;SDS011;30157;55.512;37.764;2023-06-26T14:42:30;4.78;;;4.20;;
44197;SDS011;30157;55.512;37.764;2023-06-26T14:44:56;5.63;;;4.40;;